createdAt,value
2018-10-16T00:01:19.329Z,18.14
2018-10-16T00:03:46.631Z,18.46
2018-10-16T00:06:13.882Z,18.68
2018-10-16T00:08:41.849Z,18.65
2018-10-16T00:11:09.121Z,18.61
2018-10-16T00:13:36.464Z,18.39
2018-10-16T00:16:03.701Z,18.28
2018-10-16T00:18:30.909Z,18.36
2018-10-16T00:20:58.153Z,18.22
2018-10-16T00:23:25.459Z,18.11
2018-10-16T00:25:52.726Z,17.99
2018-10-16T00:28:20.149Z,18.02
2018-10-16T00:30:47.424Z,18.05
2018-10-16T00:33:14.758Z,17.93
2018-10-16T00:35:42.019Z,18.03
2018-10-16T00:38:09.936Z,17.84
2018-10-16T00:40:37.436Z,17.87
2018-10-16T00:43:04.711Z,17.78
2018-10-16T00:45:32.016Z,17.64
2018-10-16T00:47:59.247Z,17.42
2018-10-16T00:50:27.343Z,17.45
2018-10-16T00:52:54.700Z,17.42
2018-10-16T00:55:22.266Z,17.36
2018-10-16T00:57:49.598Z,17.50
2018-10-16T01:00:17.040Z,17.39
2018-10-16T01:02:44.304Z,17.33
2018-10-16T01:05:12.517Z,17.22
2018-10-16T01:07:40.672Z,17.40
2018-10-16T01:10:08.973Z,17.29
2018-10-16T01:12:37.088Z,17.23
2018-10-16T01:15:04.699Z,17.18
2018-10-16T01:17:31.946Z,17.34
2018-10-16T01:19:59.216Z,17.29
2018-10-16T01:22:26.609Z,17.30
2018-10-16T01:24:53.866Z,17.34
2018-10-16T01:27:21.252Z,17.23
2018-10-16T01:29:48.516Z,17.40
2018-10-16T01:32:15.953Z,17.30
2018-10-16T01:34:43.326Z,17.33
2018-10-16T01:37:11.323Z,17.33
2018-10-16T01:39:38.637Z,17.30
2018-10-16T01:42:05.957Z,17.22
2018-10-16T01:44:33.183Z,17.22
2018-10-16T01:47:00.501Z,17.26
2018-10-16T01:49:27.758Z,17.29
2018-10-16T01:51:55.193Z,17.20
2018-10-16T01:54:22.471Z,17.13
2018-10-16T01:56:49.761Z,17.11
2018-10-16T01:59:17.028Z,17.14
2018-10-16T02:01:44.279Z,17.05
2018-10-16T02:04:15.135Z,17.02
2018-10-16T02:06:42.429Z,16.95
2018-10-16T02:09:11.017Z,16.85
2018-10-16T02:11:38.392Z,16.80
2018-10-16T02:14:05.933Z,16.77
2018-10-16T02:16:33.331Z,16.83
2018-10-16T02:19:00.608Z,16.85
2018-10-16T02:21:28.607Z,16.87
2018-10-16T02:23:56.622Z,16.94
2018-10-16T02:26:24.397Z,16.62
2018-10-16T02:28:51.650Z,16.69
2018-10-16T02:31:19.033Z,16.38
2018-10-16T02:33:46.336Z,16.24
2018-10-16T02:36:14.109Z,16.30
2018-10-16T02:38:41.414Z,16.23
2018-10-16T02:41:08.766Z,16.30
2018-10-16T02:43:36.102Z,16.16
2018-10-16T02:46:03.469Z,16.22
2018-10-16T02:48:30.690Z,16.16
2018-10-16T02:50:58.019Z,16.05
2018-10-16T02:53:25.332Z,16.07
2018-10-16T02:55:52.740Z,16.07
2018-10-16T02:58:20.081Z,16.09
2018-10-16T03:00:47.376Z,16.07
2018-10-16T03:03:14.680Z,16.05
2018-10-16T03:05:42.119Z,16.08
2018-10-16T03:08:09.404Z,16.08
2018-10-16T03:10:36.713Z,15.94
2018-10-16T03:13:04.023Z,16.02
2018-10-16T03:15:31.279Z,16.06
2018-10-16T03:17:58.766Z,16.13
2018-10-16T03:20:26.029Z,16.10
2018-10-16T03:22:53.402Z,16.17
2018-10-16T03:25:21.415Z,16.14
2018-10-16T03:27:48.656Z,16.13
2018-10-16T03:30:15.963Z,16.10
2018-10-16T03:32:43.216Z,16.15
2018-10-16T03:35:11.439Z,16.17
2018-10-16T03:37:46.756Z,16.09
2018-10-16T03:40:14.541Z,16.12
2018-10-16T03:42:42.589Z,16.01
2018-10-16T03:45:11.529Z,15.97
2018-10-16T03:47:39.608Z,15.99
2018-10-16T03:50:07.465Z,16.01
2018-10-16T03:52:34.811Z,15.98
2018-10-16T03:55:02.040Z,15.97
2018-10-16T03:57:29.553Z,15.98
2018-10-16T03:59:57.049Z,16.01
2018-10-16T04:02:24.354Z,16.12
2018-10-16T04:04:51.803Z,16.08
2018-10-16T04:07:19.067Z,15.92
2018-10-16T04:09:46.360Z,15.95
2018-10-16T04:12:13.624Z,16.04
2018-10-16T04:14:40.898Z,16.12
2018-10-16T04:17:08.228Z,16.11
2018-10-16T04:19:35.623Z,16.16
2018-10-16T04:22:03.056Z,16.16
2018-10-16T04:24:30.446Z,16.22
2018-10-16T04:26:57.766Z,16.21
2018-10-16T04:29:25.118Z,16.15
2018-10-16T04:31:52.550Z,16.08
2018-10-16T04:34:19.914Z,16.01
2018-10-16T04:36:47.200Z,15.99
2018-10-16T04:39:14.744Z,15.91
2018-10-16T04:41:42.485Z,15.98
2018-10-16T04:44:10.442Z,15.99
2018-10-16T04:46:37.738Z,15.98
2018-10-16T04:49:05.336Z,16.07
2018-10-16T04:51:32.629Z,16.16
2018-10-16T04:53:59.978Z,16.15
2018-10-16T04:56:27.274Z,16.20
2018-10-16T04:58:54.660Z,16.20
2018-10-16T05:01:21.989Z,16.12
2018-10-16T05:03:49.232Z,16.12
2018-10-16T05:06:16.625Z,16.16
2018-10-16T05:08:44.129Z,16.15
2018-10-16T05:11:11.420Z,16.20
2018-10-16T05:13:38.772Z,16.09
2018-10-16T05:16:06.046Z,16.16
2018-10-16T05:18:33.419Z,16.16
2018-10-16T05:21:00.881Z,15.77
2018-10-16T05:23:28.889Z,16.05
2018-10-16T05:25:56.283Z,15.57
2018-10-16T05:28:23.560Z,15.95
2018-10-16T05:30:50.831Z,16.13
2018-10-16T05:33:18.120Z,16.08
2018-10-16T05:35:45.565Z,16.17
2018-10-16T05:38:12.854Z,16.14
2018-10-16T05:40:40.098Z,16.16
2018-10-16T05:43:07.694Z,16.14
2018-10-16T05:45:38.257Z,16.15
2018-10-16T05:48:05.536Z,16.03
2018-10-16T05:50:32.790Z,15.98
2018-10-16T05:53:00.106Z,16.00
2018-10-16T05:55:27.379Z,16.03
2018-10-16T05:57:54.864Z,16.16
2018-10-16T06:00:31.258Z,16.20
2018-10-16T06:02:58.513Z,16.13
2018-10-16T06:05:25.838Z,16.08
2018-10-16T06:07:53.045Z,16.16
2018-10-16T06:10:20.405Z,16.15
2018-10-16T06:12:47.668Z,16.16
2018-10-16T06:15:14.962Z,16.22
2018-10-16T06:17:42.231Z,16.19
2018-10-16T06:20:12.114Z,16.21
2018-10-16T06:22:39.755Z,16.19
2018-10-16T06:25:08.668Z,16.18
2018-10-16T06:27:35.921Z,16.06
2018-10-16T06:30:03.575Z,16.24
2018-10-16T06:32:30.870Z,16.42
2018-10-16T06:34:58.380Z,16.17
2018-10-16T06:37:25.754Z,16.41
2018-10-16T06:39:53.065Z,16.50
2018-10-16T06:42:20.403Z,16.61
2018-10-16T06:44:47.743Z,16.62
2018-10-16T06:47:15.104Z,16.64
2018-10-16T06:49:42.495Z,16.64
2018-10-16T06:52:09.874Z,16.66
2018-10-16T06:54:37.187Z,16.76
2018-10-16T06:57:04.969Z,16.79
2018-10-16T06:59:32.894Z,16.89
2018-10-16T07:02:00.194Z,16.96
2018-10-16T07:04:27.458Z,16.97
2018-10-16T07:06:54.831Z,17.01
2018-10-16T07:09:22.042Z,17.08
2018-10-16T07:11:49.460Z,17.22
2018-10-16T07:14:16.780Z,17.05
2018-10-16T07:16:44.628Z,17.14
2018-10-16T07:19:12.912Z,17.16
2018-10-16T07:21:40.870Z,17.04
2018-10-16T07:24:08.640Z,16.93
2018-10-16T07:26:35.909Z,17.13
2018-10-16T07:29:03.349Z,17.53
2018-10-16T07:31:30.629Z,17.78
2018-10-16T07:33:58.233Z,17.90
2018-10-16T07:36:25.473Z,18.06
2018-10-16T07:38:52.862Z,18.21
2018-10-16T07:41:20.393Z,18.36
2018-10-16T07:43:47.795Z,18.41
2018-10-16T07:46:15.057Z,18.58
2018-10-16T07:48:42.425Z,18.46
2018-10-16T07:51:09.611Z,18.46
2018-10-16T07:53:36.884Z,18.73
2018-10-16T07:56:04.461Z,18.90
2018-10-16T07:58:32.305Z,19.16
2018-10-16T08:01:00.402Z,19.45
2018-10-16T08:03:27.775Z,19.80
2018-10-16T08:05:55.043Z,19.78
2018-10-16T08:08:22.299Z,19.95
2018-10-16T08:10:49.627Z,20.04
2018-10-16T08:13:16.881Z,20.21
2018-10-16T08:15:44.135Z,20.28
2018-10-16T08:18:11.555Z,20.51
2018-10-16T08:20:38.835Z,20.55
2018-10-16T08:23:06.145Z,20.71
2018-10-16T08:25:33.387Z,20.77
2018-10-16T08:28:01.372Z,20.82
2018-10-16T08:30:29.413Z,20.94
2018-10-16T08:32:56.881Z,21.28
2018-10-16T08:35:24.299Z,21.34
2018-10-16T08:40:11.428Z,21.25
2018-10-16T08:42:57.562Z,21.65
2018-10-16T08:45:36.460Z,21.59
2018-10-16T08:48:15.240Z,21.97
2018-10-16T08:50:54.234Z,22.02
2018-10-16T08:53:21.550Z,22.11
2018-10-16T08:55:48.913Z,22.41
2018-10-16T08:58:16.314Z,22.08
2018-10-16T09:00:43.734Z,22.08
2018-10-16T09:03:11.070Z,22.23
2018-10-16T09:05:38.352Z,22.18
2018-10-16T09:08:05.688Z,22.33
2018-10-16T09:10:33.058Z,22.33
2018-10-16T09:13:00.319Z,22.54
2018-10-16T09:15:27.636Z,22.60
2018-10-16T09:17:54.984Z,22.70
2018-10-16T09:20:22.419Z,22.72
2018-10-16T09:22:49.652Z,22.79
2018-10-16T09:25:17.132Z,22.83
2018-10-16T09:27:44.519Z,22.84
2018-10-16T09:30:13.011Z,22.78
2018-10-16T09:32:40.630Z,23.01
2018-10-16T09:35:09.655Z,23.09
2018-10-16T09:37:37.539Z,23.09
2018-10-16T09:40:05.979Z,23.05
2018-10-16T09:42:33.465Z,23.12
2018-10-16T09:45:00.801Z,23.18
2018-10-16T09:47:28.205Z,23.32
2018-10-16T09:49:55.618Z,23.30
2018-10-16T09:52:23.063Z,23.53
2018-10-16T09:54:50.423Z,23.54
2018-10-16T09:57:17.742Z,23.44
2018-10-16T09:59:45.038Z,23.45
2018-10-16T10:02:12.963Z,23.50
2018-10-16T10:04:40.317Z,23.54
2018-10-16T10:07:07.620Z,23.65
2018-10-16T10:09:34.934Z,23.69
2018-10-16T10:12:02.437Z,23.75
2018-10-16T10:14:29.798Z,24.02
2018-10-16T10:16:57.110Z,24.09
2018-10-16T10:19:24.422Z,24.15
2018-10-16T10:21:52.002Z,24.45
2018-10-16T10:24:19.287Z,24.63
2018-10-16T10:26:46.576Z,24.68
2018-10-16T10:29:13.959Z,24.67
2018-10-16T10:31:41.196Z,24.89
2018-10-16T10:34:08.514Z,24.89
2018-10-16T10:36:35.792Z,25.07
2018-10-16T10:39:04.568Z,25.17
2018-10-16T10:41:32.560Z,25.30
2018-10-16T10:43:59.820Z,25.48
2018-10-16T10:46:27.787Z,25.74
2018-10-16T10:48:55.241Z,26.13
2018-10-16T10:51:22.944Z,26.26
2018-10-16T10:53:49.976Z,26.07
2018-10-16T10:56:17.288Z,26.24
2018-10-16T10:58:44.546Z,26.54
2018-10-16T11:01:11.840Z,26.91
2018-10-16T11:03:39.353Z,27.10
2018-10-16T11:06:06.571Z,26.93
2018-10-16T11:08:34.631Z,27.13
2018-10-16T11:11:02.583Z,27.57
2018-10-16T11:13:30.525Z,27.62
2018-10-16T11:15:57.899Z,27.34
2018-10-16T11:18:25.154Z,27.81
2018-10-16T11:20:52.484Z,27.64
2018-10-16T11:23:19.731Z,28.09
2018-10-16T11:25:47.085Z,28.10
2018-10-16T11:28:14.388Z,28.32
2018-10-16T11:30:41.799Z,28.11
2018-10-16T11:33:09.302Z,28.21
2018-10-16T11:35:36.546Z,28.39
2018-10-16T11:38:04.159Z,28.58
2018-10-16T11:40:31.424Z,27.88
2018-10-16T11:42:58.901Z,27.94
2018-10-16T11:45:26.259Z,28.30
2018-10-16T11:47:53.540Z,28.41
2018-10-16T11:50:20.866Z,28.83
2018-10-16T11:52:48.202Z,29.02
2018-10-16T11:55:15.498Z,28.99
2018-10-16T11:57:42.758Z,28.87
2018-10-16T12:00:12.856Z,28.97
2018-10-16T12:02:40.953Z,29.21
2018-10-16T12:05:08.199Z,29.27
2018-10-16T12:07:35.504Z,29.48
2018-10-16T12:10:02.884Z,29.45
2018-10-16T12:12:30.214Z,29.55
2018-10-16T12:14:57.492Z,30.45
2018-10-16T12:17:30.498Z,30.18
2018-10-16T12:20:01.640Z,30.40
2018-10-16T12:22:29.084Z,30.18
2018-10-16T12:24:56.493Z,30.82
2018-10-16T12:27:23.761Z,31.15
2018-10-16T12:29:51.059Z,30.52
2018-10-16T12:32:18.409Z,30.14
2018-10-16T12:34:45.634Z,31.06
2018-10-16T12:37:12.921Z,31.08
2018-10-16T12:39:40.319Z,30.80
2018-10-16T12:42:07.773Z,30.29
2018-10-16T12:44:35.051Z,30.52
2018-10-16T12:47:02.360Z,31.10
2018-10-16T12:49:29.941Z,31.45
2018-10-16T12:51:57.312Z,30.84
2018-10-16T12:54:24.703Z,30.26
2018-10-16T12:56:52.796Z,30.38
2018-10-16T12:59:20.142Z,30.14
2018-10-16T13:01:47.552Z,30.17
2018-10-16T13:04:14.806Z,30.39
2018-10-16T13:06:42.508Z,30.18
2018-10-16T13:09:11.257Z,30.45
2018-10-16T13:11:39.576Z,31.31
2018-10-16T13:14:07.187Z,31.19
2018-10-16T13:16:34.581Z,30.90
2018-10-16T13:19:01.835Z,30.90
2018-10-16T13:21:29.897Z,30.89
2018-10-16T13:23:57.260Z,30.38
2018-10-16T13:26:24.613Z,31.26
2018-10-16T13:28:51.980Z,31.50
2018-10-16T13:31:19.295Z,31.34
2018-10-16T13:33:46.724Z,31.00
2018-10-16T13:36:13.978Z,31.27
2018-10-16T13:38:41.382Z,30.87
2018-10-16T13:41:08.765Z,31.37
2018-10-16T13:43:37.042Z,31.36
2018-10-16T13:46:05.035Z,30.89
2018-10-16T13:48:32.980Z,30.97
2018-10-16T13:51:00.391Z,31.29
2018-10-16T13:53:27.714Z,31.29
2018-10-16T13:55:55.122Z,30.52
2018-10-16T13:58:22.422Z,30.96
2018-10-16T14:00:49.852Z,30.98
2018-10-16T14:03:17.333Z,30.60
2018-10-16T14:05:44.716Z,30.58
2018-10-16T14:08:12.080Z,31.01
2018-10-16T14:10:39.363Z,30.46
2018-10-16T14:13:06.691Z,30.10
2018-10-16T14:15:34.609Z,30.03
2018-10-16T14:18:02.555Z,30.08
2018-10-16T14:20:29.881Z,30.28
2018-10-16T14:22:57.263Z,30.17
2018-10-16T14:25:24.655Z,30.41
2018-10-16T14:27:52.055Z,30.63
2018-10-16T14:30:19.396Z,30.82
2018-10-16T14:32:46.679Z,30.88
2018-10-16T14:35:14.459Z,30.87
2018-10-16T14:37:41.758Z,30.46
2018-10-16T14:40:11.601Z,30.31
2018-10-16T14:42:39.278Z,30.09
2018-10-16T14:45:08.091Z,29.84
2018-10-16T14:47:36.047Z,29.82
2018-10-16T14:50:03.940Z,29.78
2018-10-16T14:52:31.186Z,29.87
2018-10-16T14:54:58.434Z,29.81
2018-10-16T14:57:25.882Z,29.80
2018-10-16T14:59:53.344Z,29.82
2018-10-16T15:02:20.667Z,29.50
2018-10-16T15:04:48.017Z,29.35
2018-10-16T15:07:15.362Z,29.03
2018-10-16T15:09:42.692Z,29.19
2018-10-16T15:12:09.981Z,28.96
2018-10-16T15:14:37.328Z,29.23
2018-10-16T15:17:05.769Z,28.90
2018-10-16T15:19:33.180Z,29.04
2018-10-16T15:22:00.532Z,28.88
2018-10-16T15:24:28.540Z,28.77
2018-10-16T15:26:55.868Z,28.71
2018-10-16T15:29:23.196Z,28.59
2018-10-16T15:31:50.678Z,28.64
2018-10-16T15:34:18.120Z,28.62
2018-10-16T15:36:45.393Z,28.25
2018-10-16T15:39:13.177Z,28.48
2018-10-16T15:41:40.425Z,28.24
2018-10-16T15:44:08.568Z,27.96
2018-10-16T15:46:36.424Z,28.01
2018-10-16T15:49:04.042Z,27.81
2018-10-16T15:51:31.459Z,27.87
2018-10-16T15:53:58.779Z,28.04
2018-10-16T15:56:26.084Z,27.75
2018-10-16T15:58:53.475Z,27.83
2018-10-16T16:01:20.747Z,27.82
2018-10-16T16:03:48.055Z,27.73
2018-10-16T16:06:15.331Z,27.78
2018-10-16T16:08:42.648Z,27.62
2018-10-16T16:11:10.064Z,27.61
2018-10-16T16:13:37.472Z,27.54
2018-10-16T16:16:04.792Z,27.46
2018-10-16T16:18:32.119Z,27.35
2018-10-16T16:20:59.973Z,27.09
2018-10-16T16:23:27.307Z,27.03
2018-10-16T16:25:54.617Z,26.91
2018-10-16T16:28:22.458Z,26.92
2018-10-16T16:30:49.757Z,26.94
2018-10-16T16:33:17.019Z,26.92
2018-10-16T16:35:44.343Z,26.93
2018-10-16T16:38:12.153Z,26.69
2018-10-16T16:40:39.447Z,26.44
2018-10-16T16:43:06.823Z,26.23
2018-10-16T16:45:34.147Z,26.00
2018-10-16T16:48:01.509Z,25.84
2018-10-16T16:50:28.903Z,25.59
2018-10-16T16:52:56.822Z,25.49
2018-10-16T16:55:24.351Z,25.47
2018-10-16T16:57:51.786Z,25.41
2018-10-16T17:00:19.161Z,25.36
2018-10-16T17:02:47.071Z,25.20
2018-10-16T17:05:14.887Z,25.11
2018-10-16T17:07:42.836Z,25.13
2018-10-16T17:10:10.215Z,24.97
2018-10-16T17:12:38.379Z,24.79
2018-10-16T17:15:07.875Z,24.75
2018-10-16T17:17:35.220Z,24.67
2018-10-16T17:20:03.097Z,24.53
2018-10-16T17:22:30.379Z,24.50
2018-10-16T17:24:57.789Z,24.40
2018-10-16T17:27:25.091Z,24.34
2018-10-16T17:29:52.495Z,24.33
2018-10-16T17:32:19.748Z,24.32
2018-10-16T17:34:47.076Z,24.30
2018-10-16T17:37:14.469Z,24.18
2018-10-16T17:39:41.838Z,24.16
2018-10-16T17:42:09.258Z,24.00
2018-10-16T17:44:36.768Z,24.00
2018-10-16T17:47:04.382Z,23.94
2018-10-16T17:49:31.640Z,23.82
2018-10-16T17:51:58.980Z,23.86
2018-10-16T17:54:26.358Z,23.73
2018-10-16T17:56:53.814Z,23.69
2018-10-16T17:59:21.064Z,23.73
2018-10-16T18:01:48.500Z,23.68
2018-10-16T18:04:16.756Z,23.55
2018-10-16T18:06:44.072Z,23.53
2018-10-16T18:09:12.215Z,23.53
2018-10-16T18:11:39.509Z,23.56
2018-10-16T18:14:07.616Z,23.53
2018-10-16T18:16:34.962Z,23.47
2018-10-16T18:19:02.395Z,23.50
2018-10-16T18:21:30.424Z,23.52
2018-10-16T18:23:57.889Z,23.50
2018-10-16T18:26:25.395Z,23.51
2018-10-16T18:28:52.812Z,23.42
2018-10-16T18:31:20.252Z,23.36
2018-10-16T18:33:47.517Z,23.34
2018-10-16T18:36:14.845Z,23.23
2018-10-16T18:38:42.095Z,23.19
2018-10-16T18:41:15.635Z,23.12
2018-10-16T18:43:43.048Z,23.05
2018-10-16T18:46:10.385Z,23.01
2018-10-16T18:48:37.742Z,22.91
2018-10-16T18:51:05.220Z,22.88
2018-10-16T18:53:32.735Z,22.90
2018-10-16T18:56:00.023Z,22.77
2018-10-16T18:58:27.509Z,22.75
2018-10-16T19:00:54.906Z,22.67
2018-10-16T19:03:22.279Z,22.68
2018-10-16T19:05:49.780Z,22.56
2018-10-16T19:08:17.037Z,22.62
2018-10-16T19:10:44.404Z,22.48
2018-10-16T19:13:11.741Z,22.39
2018-10-16T19:15:39.037Z,22.28
2018-10-16T19:18:06.380Z,22.25
2018-10-16T19:20:34.859Z,22.19
2018-10-16T19:23:02.765Z,22.22
2018-10-16T19:25:30.123Z,22.17
2018-10-16T19:27:57.438Z,22.16
2018-10-16T19:30:24.723Z,22.11
2018-10-16T19:32:51.978Z,22.09
2018-10-16T19:35:19.303Z,22.16
2018-10-16T19:37:46.649Z,22.15
2018-10-16T19:40:14.077Z,22.03
2018-10-16T19:42:41.466Z,22.20
2018-10-16T19:45:09.696Z,22.22
2018-10-16T19:47:37.914Z,22.11
2018-10-16T19:50:06.078Z,22.07
2018-10-16T19:52:33.476Z,22.04
2018-10-16T19:55:00.888Z,22.04
2018-10-16T19:57:28.196Z,21.93
2018-10-16T19:59:55.723Z,21.93
2018-10-16T20:02:22.973Z,21.89
2018-10-16T20:04:50.389Z,22.01
2018-10-16T20:07:17.945Z,21.95
2018-10-16T20:09:45.189Z,21.91
2018-10-16T20:12:12.674Z,21.83
2018-10-16T20:14:40.746Z,21.84
2018-10-16T20:17:08.747Z,21.77
2018-10-16T20:19:36.179Z,21.84
2018-10-16T20:22:03.565Z,21.83
2018-10-16T20:24:30.895Z,21.74
2018-10-16T20:26:58.349Z,21.81
2018-10-16T20:29:25.749Z,21.81
2018-10-16T20:31:53.123Z,21.86
2018-10-16T20:34:20.431Z,21.84
2018-10-16T20:36:47.781Z,21.76
2018-10-16T20:39:15.052Z,21.65
2018-10-16T20:41:42.429Z,21.68
2018-10-16T20:44:10.436Z,21.63
2018-10-16T20:46:37.773Z,21.63
2018-10-16T20:49:05.927Z,21.56
2018-10-16T20:51:33.544Z,21.49
2018-10-16T20:54:01.417Z,21.59
2018-10-16T20:56:28.786Z,21.41
2018-10-16T20:58:56.752Z,21.36
2018-10-16T21:01:24.171Z,21.37
2018-10-16T21:03:51.658Z,21.28
2018-10-16T21:06:19.289Z,21.34
2018-10-16T21:08:46.464Z,21.29
2018-10-16T21:11:14.162Z,21.12
2018-10-16T21:13:42.210Z,21.01
2018-10-16T21:16:09.552Z,21.06
2018-10-16T21:18:37.011Z,21.12
2018-10-16T21:21:05.064Z,21.11
2018-10-16T21:23:32.414Z,21.10
2018-10-16T21:25:59.830Z,21.14
2018-10-16T21:28:27.290Z,21.07
2018-10-16T21:30:54.716Z,21.18
2018-10-16T21:33:22.138Z,21.20
2018-10-16T21:35:49.410Z,21.24
2018-10-16T21:38:16.802Z,21.19
2018-10-16T21:40:44.047Z,20.88
2018-10-16T21:43:11.495Z,21.09
2018-10-16T21:45:38.818Z,21.04
2018-10-16T21:48:06.084Z,21.06
2018-10-16T21:50:33.417Z,21.11
2018-10-16T21:53:00.737Z,20.97
2018-10-16T21:55:28.037Z,21.04
2018-10-16T21:57:55.502Z,20.97
2018-10-16T22:00:28.468Z,20.93
2018-10-16T22:02:57.110Z,20.88
2018-10-16T22:05:25.097Z,20.86
2018-10-16T22:07:53.965Z,20.79
2018-10-16T22:10:21.775Z,20.68
2018-10-16T22:12:49.272Z,20.82
2018-10-16T22:15:18.231Z,20.69
2018-10-16T22:17:45.575Z,20.65
2018-10-16T22:20:13.409Z,20.64
2018-10-16T22:22:41.009Z,20.59
2018-10-16T22:25:08.488Z,20.55
2018-10-16T22:27:35.737Z,20.44
2018-10-16T22:30:03.099Z,20.45
2018-10-16T22:32:30.986Z,20.36
2018-10-16T22:34:58.364Z,20.34
2018-10-16T22:37:25.645Z,20.30
2018-10-16T22:39:53.609Z,20.32
2018-10-16T22:42:20.855Z,20.27
2018-10-16T22:44:48.713Z,20.26
2018-10-16T22:47:16.062Z,20.21
2018-10-16T22:49:43.442Z,20.10
2018-10-16T22:52:10.740Z,20.00
2018-10-16T22:54:38.171Z,19.99
2018-10-16T22:57:06.090Z,19.91
2018-10-16T22:59:33.329Z,19.82
2018-10-16T23:02:00.637Z,19.89
2018-10-16T23:04:28.020Z,19.88
2018-10-16T23:06:55.461Z,19.82
2018-10-16T23:09:22.704Z,19.80
2018-10-16T23:11:50.667Z,19.85
2018-10-16T23:14:17.980Z,19.86
2018-10-16T23:16:45.268Z,19.70
2018-10-16T23:19:12.571Z,19.75
2018-10-16T23:21:39.776Z,19.91
2018-10-16T23:24:07.108Z,19.78
2018-10-16T23:26:35.391Z,19.86
2018-10-16T23:29:02.791Z,19.78
2018-10-16T23:31:30.138Z,19.71
2018-10-16T23:33:57.455Z,19.59
2018-10-16T23:36:25.379Z,19.55
2018-10-16T23:38:52.636Z,19.34
2018-10-16T23:41:19.899Z,19.34
2018-10-16T23:43:47.198Z,19.32
2018-10-16T23:46:14.477Z,19.21
2018-10-16T23:48:41.819Z,19.24
2018-10-16T23:51:09.153Z,19.22
2018-10-16T23:53:36.584Z,19.44
2018-10-16T23:56:03.918Z,19.45
2018-10-16T23:58:31.713Z,19.23
